Terminal Aerodrome Forecast
Issued by NWS

Home | Current Version | Previous Version | Text Only | Print | Product List | Glossary On
Versions: 1 2 3 4 5 6 7 8 9 10 11 12 13 14 15 16 17 18 19 20 21 22 23 24 25 26 27 28 29 30 31 32 33 34 35 36 37 38 39 40 41 42 43 44 45 46 47 48 49 50
000
FTUS44 KMAF 172321
TAFFST
TAF
KFST 172321Z 1800/1824 15019G27KT P6SM SCT040 SCT100 BKN250
      TEMPO 1800/1803 VRB25G35KT 5SM -TSRA BKN035CB
     FM180300 15012KT P6SM SCT040 SCT250
     FM181100 14008KT P6SM SCT040 SCT250=

USA.gov is the U.S. government's official web portal to all federal, state and local government web resources and services.